Terminal Aerodrome Forecast
Issued by NWS

Home | Current Version | Previous Version | Graphics & Text | Print | Product List | Glossary On
Versions: 1 2 3 4 5 6 7 8 9 10 11 12 13 14 15 16 17 18 19 20 21 22 23 24 25 26 27 28 29 30 31 32
966
FTUS43 KGRB 091627 AAA
TAFRHI
TAF AMD
KRHI 091627Z 0916/1012 36012G22KT 5SM -SN BR BKN028 OVC035
      TEMPO 0916/0920 2SM -SN OVC020
     FM092200 32008KT P6SM -SN SCT020 OVC035=

USA.gov is the U.S. government's official web portal to all federal, state and local government web resources and services.